Time;durP1;ratioP1;P1;durP2;ratioP2;P2;SDS_P1;SDS_P2;PMS_P1;PMS_P2;Temp;Humidity;BMP_temperature;BMP_pressure;BME280_temperature;BME280_humidity;BME280_pressure;Samples;Min_cycle;Max_cycle;Signal;HPM_P1;HPM_P2
2024/04/19 00:00:36;;;;;;;10.80;7.50;;;;;;;0.59;83.01;98511.27;227041;1274;22559;-73
2024/04/19 00:05:41;;;;;;;10.40;7.50;;;;;;;0.67;83.22;98510.17;226918;1273;22547;-72
2024/04/19 00:11:03;;;;;;;11.90;8.60;;;;;;;0.76;83.16;98512.52;226981;1275;22644;-72
2024/04/19 00:16:05;;;;;;;14.00;9.00;;;;;;;0.85;83.05;98512.27;226985;1275;25385;-73
2024/04/19 00:21:07;;;;;;;13.20;10.00;;;;;;;0.90;83.31;98511.27;227040;1272;22546;-72
2024/04/19 00:26:09;;;;;;;12.10;9.10;;;;;;;0.96;83.02;98510.60;226764;1274;22539;-72
2024/04/19 00:31:11;;;;;;;15.60;10.10;;;;;;;0.98;82.97;98511.98;226879;1274;22653;-72
2024/04/19 00:36:12;;;;;;;13.10;9.10;;;;;;;0.96;83.16;98510.48;226912;1274;22541;-72
2024/04/19 00:41:14;;;;;;;15.00;10.00;;;;;;;0.89;82.96;98502.54;226988;1272;22567;-72
2024/04/19 00:46:16;;;;;;;15.30;10.50;;;;;;;0.80;83.04;98503.85;226913;1275;22542;-73
2024/04/19 00:51:19;;;;;;;14.90;10.40;;;;;;;0.70;82.93;98503.89;226837;1273;24160;-71
2024/04/19 00:56:21;;;;;;;14.60;9.70;;;;;;;0.60;83.16;98505.09;226996;1272;22542;-72
2024/04/19 01:01:24;;;;;;;14.50;10.30;;;;;;;0.53;83.38;98501.38;226938;1273;22534;-72
2024/04/19 01:06:26;;;;;;;15.20;10.60;;;;;;;0.48;83.45;98503.06;226989;1274;22591;-72
2024/04/19 01:11:28;;;;;;;12.10;9.00;;;;;;;0.44;83.65;98507.39;227012;1273;22595;-73
2024/04/19 01:16:30;;;;;;;11.80;8.50;;;;;;;0.40;83.50;98499.41;226516;1273;510506;-71
2024/04/19 01:21:32;;;;;;;13.40;9.40;;;;;;;0.36;83.75;98507.34;226860;1274;22625;-71
2024/04/19 01:26:34;;;;;;;11.50;8.60;;;;;;;0.32;83.91;98508.16;226877;1271;22562;-72
2024/04/19 01:31:36;;;;;;;11.70;8.90;;;;;;;0.28;83.94;98505.95;226934;1274;22538;-71
2024/04/19 01:36:38;;;;;;;13.90;9.30;;;;;;;0.24;84.41;98508.85;227002;1270;22579;-73
2024/04/19 01:41:39;;;;;;;13.20;8.50;;;;;;;0.21;84.63;98506.70;227053;1275;22549;-72
2024/04/19 01:46:41;;;;;;;13.00;9.30;;;;;;;0.18;84.68;98501.25;226973;1270;22526;-72
2024/04/19 01:51:43;;;;;;;12.00;8.10;;;;;;;0.16;84.67;98506.40;227044;1270;25422;-71
2024/04/19 01:56:45;;;;;;;11.30;7.80;;;;;;;0.15;84.71;98502.16;226919;1273;24241;-71
2024/04/19 02:01:47;;;;;;;10.90;8.40;;;;;;;0.15;84.95;98499.92;226749;1270;22566;-73
2024/04/19 02:06:49;;;;;;;11.80;9.10;;;;;;;0.15;84.93;98503.52;227025;1274;22680;-72
2024/04/19 02:12:05;;;;;;;14.70;9.30;;;;;;;0.14;85.04;98499.33;226921;1273;22595;-73
2024/04/19 02:17:07;;;;;;;13.40;9.90;;;;;;;0.13;85.08;98494.21;227067;1270;22563;-72
2024/04/19 02:22:09;;;;;;;13.90;9.70;;;;;;;0.11;85.16;98495.10;227104;1272;22549;-73
2024/04/19 02:32:39;;;;;;;14.50;10.60;;;;;;;0.10;85.08;98477.85;226755;1275;22740;-73
2024/04/19 02:37:40;;;;;;;14.30;10.70;;;;;;;0.09;85.35;98476.92;226956;1272;24255;-72
2024/04/19 02:42:42;;;;;;;17.70;13.70;;;;;;;0.06;85.29;98469.70;226859;1274;22558;-71
2024/04/19 02:47:44;;;;;;;18.80;14.20;;;;;;;0.03;85.49;98465.52;227036;1272;22542;-71
2024/04/19 02:52:46;;;;;;;17.90;12.20;;;;;;;-0.03;85.30;98460.92;227005;1273;24223;-72
2024/04/19 02:57:48;;;;;;;20.90;15.70;;;;;;;-0.06;85.52;98456.70;227006;1259;22631;-72
2024/04/19 03:03:10;;;;;;;16.70;13.70;;;;;;;-0.09;85.42;98450.55;226963;1272;22539;-72
2024/04/19 03:08:12;;;;;;;18.50;13.40;;;;;;;-0.10;85.48;98451.00;227099;1272;22529;-71
2024/04/19 03:13:14;;;;;;;15.80;11.80;;;;;;;-0.09;85.57;98440.00;226984;1273;22660;-72
2024/04/19 03:18:16;;;;;;;18.80;15.20;;;;;;;-0.10;85.65;98438.14;227015;1275;22538;-72
2024/04/19 03:23:18;;;;;;;17.00;13.20;;;;;;;-0.09;85.91;98436.55;227006;1274;22534;-72
2024/04/19 03:28:20;;;;;;;19.90;16.10;;;;;;;-0.09;86.08;98428.03;226827;1274;22540;-72
2024/04/19 03:33:21;;;;;;;21.50;15.90;;;;;;;-0.10;85.82;98430.05;226887;1274;22573;-72
2024/04/19 03:38:25;;;;;;;18.60;14.70;;;;;;;-0.13;85.89;98424.42;227060;1271;22587;-73
2024/04/19 03:43:33;;;;;;;26.30;18.40;;;;;;;-0.13;85.90;98423.41;227032;1274;22542;-72
2024/04/19 03:48:34;;;;;;;21.90;16.80;;;;;;;-0.12;86.07;98429.89;226992;1273;25888;-73
2024/04/19 03:53:36;;;;;;;27.50;20.70;;;;;;;-0.10;85.98;98424.11;226876;1270;22574;-72
2024/04/19 03:58:38;;;;;;;30.50;23.80;;;;;;;-0.06;85.93;98421.38;226894;1274;22585;-72
2024/04/19 04:03:40;;;;;;;40.10;27.60;;;;;;;-0.01;86.00;98422.36;226891;1273;24244;-72
2024/04/19 04:08:42;;;;;;;36.10;26.20;;;;;;;0.05;85.94;98421.20;226983;1273;22536;-73
2024/04/19 04:13:43;;;;;;;33.20;24.70;;;;;;;0.13;85.81;98418.91;226806;1274;23344;-73
2024/04/19 04:18:45;;;;;;;34.80;25.50;;;;;;;0.20;86.06;98424.56;227078;1273;22591;-72
2024/04/19 04:23:47;;;;;;;37.30;26.90;;;;;;;0.29;85.99;98420.98;226962;1272;22550;-72
2024/04/19 04:28:49;;;;;;;39.50;25.80;;;;;;;0.37;86.03;98420.67;227017;1270;22667;-72
2024/04/19 04:33:51;;;;;;;33.60;26.70;;;;;;;0.42;85.94;98415.73;226991;1272;22743;-71
2024/04/19 04:38:52;;;;;;;29.00;22.80;;;;;;;0.49;85.96;98411.59;227052;1270;22697;-72
2024/04/19 04:43:54;;;;;;;31.70;23.80;;;;;;;0.56;86.14;98411.88;226837;1270;22583;-72
2024/04/19 04:48:56;;;;;;;33.20;24.40;;;;;;;0.67;86.01;98411.61;226928;1270;22554;-72
2024/04/19 04:53:59;;;;;;;32.70;23.30;;;;;;;0.81;86.20;98418.52;227038;1274;22549;-71
2024/04/19 04:59:00;;;;;;;32.20;23.50;;;;;;;0.92;86.01;98412.61;226908;1272;22538;-72
2024/04/19 05:04:02;;;;;;;33.00;23.30;;;;;;;1.03;86.10;98408.73;226740;1274;22592;-72
2024/04/19 05:09:04;;;;;;;28.00;20.20;;;;;;;1.15;86.02;98410.59;226956;1272;22898;-71
2024/04/19 05:14:06;;;;;;;26.40;18.90;;;;;;;1.27;85.91;98412.11;226904;1273;22515;-72
2024/04/19 05:19:07;;;;;;;26.80;19.40;;;;;;;1.38;85.96;98407.77;226850;1269;22537;-72
2024/04/19 05:24:09;;;;;;;25.10;18.20;;;;;;;1.56;85.79;98402.17;226880;1269;22546;-72
2024/04/19 05:29:12;;;;;;;25.40;17.50;;;;;;;1.76;85.77;98393.55;226878;1274;24087;-73
2024/04/19 05:34:13;;;;;;;19.30;13.20;;;;;;;1.98;85.62;98387.66;226851;1273;22658;-73
2024/04/19 05:39:15;;;;;;;13.40;9.90;;;;;;;2.23;85.65;98388.80;226904;1273;22547;-72
2024/04/19 05:44:19;;;;;;;12.60;8.80;;;;;;;2.51;85.28;98382.96;226795;1270;22562;-72
2024/04/19 05:49:22;;;;;;;9.70;7.60;;;;;;;2.79;84.63;98381.12;226861;1274;22545;-73
2024/04/19 05:54:24;;;;;;;10.50;7.70;;;;;;;3.07;84.47;98378.90;226724;1268;22619;-73
2024/04/19 05:59:26;;;;;;;11.20;8.10;;;;;;;3.35;84.10;98375.55;226716;1258;22901;-73
2024/04/19 06:04:28;;;;;;;12.90;7.70;;;;;;;3.61;83.66;98367.52;226394;1260;22550;-76
2024/04/19 06:09:30;;;;;;;10.30;6.40;;;;;;;3.85;82.95;98364.18;226438;1252;22543;-73
2024/04/19 06:14:32;;;;;;;11.40;7.70;;;;;;;4.14;82.49;98366.01;226308;1260;22542;-75
2024/04/19 06:19:33;;;;;;;8.00;6.10;;;;;;;4.43;81.98;98362.41;226402;1256;22578;-76
2024/04/19 06:24:36;;;;;;;8.00;5.60;;;;;;;4.75;81.43;98363.30;226250;1265;22542;-72
2024/04/19 06:36:17;;;;;;;7.00;5.00;;;;;;;5.46;79.21;98357.67;224623;1257;22553;-74
2024/04/19 06:41:19;;;;;;;9.00;6.60;;;;;;;5.68;78.81;98350.40;225400;1265;22544;-75
2024/04/19 06:46:20;;;;;;;6.10;4.50;;;;;;;5.94;78.52;98349.60;225489;1267;25424;-73
2024/04/19 06:51:22;;;;;;;5.70;4.20;;;;;;;6.22;76.71;98344.77;225319;1270;24477;-71
2024/04/19 06:56:24;;;;;;;7.00;4.10;;;;;;;6.52;76.12;98343.95;225188;1273;22677;-74
2024/04/19 07:01:26;;;;;;;4.40;3.00;;;;;;;6.97;75.12;98346.09;225304;1275;22553;-72
2024/04/19 07:06:28;;;;;;;5.80;3.80;;;;;;;7.27;74.46;98336.26;225413;1264;22634;-73
2024/04/19 07:11:45;;;;;;;6.60;3.50;;;;;;;7.57;73.89;98329.60;225834;1253;22552;-75
2024/04/19 07:16:47;;;;;;;4.60;3.40;;;;;;;7.91;72.68;98320.58;226477;1260;22557;-75
2024/04/19 07:21:49;;;;;;;4.30;3.70;;;;;;;8.20;71.34;98324.14;226100;1269;22538;-74
2024/04/19 07:26:52;;;;;;;4.60;3.40;;;;;;;8.41;70.42;98319.88;226711;1256;22534;-73
2024/04/19 07:31:54;;;;;;;3.40;2.80;;;;;;;8.55;70.46;98315.50;226545;1267;22535;-73
2024/04/19 07:36:56;;;;;;;5.10;3.10;;;;;;;8.78;70.22;98312.54;226731;1251;22576;-79
2024/04/19 07:41:58;;;;;;;3.60;2.70;;;;;;;9.11;69.34;98307.23;226679;1270;24677;-74
2024/04/19 07:47:00;;;;;;;4.10;3.10;;;;;;;9.53;69.18;98301.18;226734;1264;22547;-74
2024/04/19 07:52:02;;;;;;;7.00;3.20;;;;;;;9.73;67.87;98290.48;226786;1270;22649;-73
2024/04/19 07:57:04;;;;;;;3.00;2.60;;;;;;;9.80;67.25;98280.98;226519;1259;22653;-73
2024/04/19 08:02:06;;;;;;;3.50;2.50;;;;;;;9.87;66.87;98269.04;226432;1256;23276;-74
2024/04/19 08:07:08;;;;;;;5.10;3.00;;;;;;;9.99;66.56;98255.98;226787;1251;22681;-73
2024/04/19 08:12:21;;;;;;;2.50;2.30;;;;;;;10.16;65.74;98251.94;226394;1267;22541;-69
2024/04/19 08:17:23;;;;;;;3.50;3.00;;;;;;;10.37;65.68;98243.83;226708;1266;25291;-71
2024/04/19 08:22:24;;;;;;;2.70;2.50;;;;;;;10.69;65.24;98235.38;226492;1260;25872;-72
2024/04/19 08:27:26;;;;;;;2.50;1.80;;;;;;;10.89;64.89;98226.98;226625;1272;22558;-72
2024/04/19 08:32:28;;;;;;;3.70;1.70;;;;;;;10.75;62.82;98221.67;226813;1270;22552;-72
2024/04/19 08:37:31;;;;;;;2.70;2.00;;;;;;;10.60;63.28;98215.21;226775;1263;25712;-71
2024/04/19 08:42:33;;;;;;;3.20;1.80;;;;;;;10.66;63.12;98219.25;226725;1260;24508;-77
2024/04/19 08:47:36;;;;;;;4.30;2.00;;;;;;;10.72;61.27;98213.06;226547;1266;22517;-85
2024/04/19 08:52:39;;;;;;;4.10;2.30;;;;;;;10.69;60.80;98204.37;226867;1263;22565;-78
2024/04/19 08:58:01;;;;;;;3.90;2.80;;;;;;;10.68;60.44;98198.73;226200;1268;24710;-80
2024/04/19 09:03:05;;;;;;;4.10;2.70;;;;;;;10.72;61.10;98187.21;226336;1260;22537;-79
2024/04/19 09:08:07;;;;;;;3.90;2.90;;;;;;;10.73;60.86;98183.14;226306;1263;22536;-78
2024/04/19 09:13:09;;;;;;;5.30;3.10;;;;;;;10.81;60.94;98176.43;226390;1262;22535;-78
2024/04/19 09:18:10;;;;;;;3.00;2.20;;;;;;;11.07;60.67;98170.06;226678;1264;23057;-79
2024/04/19 09:23:12;;;;;;;2.50;2.10;;;;;;;11.44;58.87;98158.23;226721;1256;25569;-78
2024/04/19 09:28:15;;;;;;;2.50;1.90;;;;;;;11.37;56.77;98159.62;226769;1263;22528;-78
2024/04/19 09:33:17;;;;;;;2.00;1.90;;;;;;;11.17;56.43;98152.44;226476;1263;22890;-81
2024/04/19 09:38:20;;;;;;;2.70;2.00;;;;;;;11.34;58.02;98142.51;226735;1263;23684;-79
2024/04/19 09:43:24;;;;;;;2.20;2.00;;;;;;;11.77;57.09;98135.23;226854;1260;22540;-79
2024/04/19 09:48:38;;;;;;;2.50;2.00;;;;;;;11.93;56.45;98114.87;226900;1264;22550;-79
2024/04/19 09:53:44;;;;;;;2.10;1.50;;;;;;;12.13;55.41;98102.13;226690;1259;22530;-79
2024/04/19 09:58:47;;;;;;;3.00;2.50;;;;;;;12.16;55.06;98091.55;226655;1273;22553;-79
2024/04/19 10:03:51;;;;;;;2.90;2.50;;;;;;;12.26;55.65;98082.88;226803;1264;22631;-80
2024/04/19 10:08:57;;;;;;;5.60;2.50;;;;;;;12.10;55.22;98080.14;226534;1260;22544;-83
2024/04/19 10:14:01;;;;;;;3.20;2.80;;;;;;;11.93;55.70;98068.28;226354;1263;22548;-82
2024/04/19 10:19:03;;;;;;;3.80;2.60;;;;;;;11.67;55.93;98068.09;226339;1266;22600;-80
2024/04/19 10:24:22;;;;;;;4.50;2.60;;;;;;;11.29;56.80;98084.86;226449;1265;22542;-79
2024/04/19 10:29:27;;;;;;;2.30;2.10;;;;;;;10.53;58.96;98091.78;226510;1263;22604;-80
2024/04/19 10:34:30;;;;;;;3.40;2.30;;;;;;;9.75;60.62;98102.54;226294;1261;22541;-80
2024/04/19 10:39:32;;;;;;;2.20;2.00;;;;;;;9.21;61.92;98104.81;226528;1263;22538;-80
2024/04/19 10:44:39;;;;;;;2.60;1.70;;;;;;;8.84;63.73;98120.71;226718;1270;22545;-80
2024/04/19 10:49:43;;;;;;;3.90;3.00;;;;;;;8.14;64.89;98132.84;226658;1260;25333;-80
2024/04/19 10:54:46;;;;;;;3.50;3.10;;;;;;;7.44;65.95;98094.73;226624;1263;22530;-87
2024/04/19 10:59:52;;;;;;;4.20;2.30;;;;;;;7.56;68.16;98056.45;226546;1263;22565;-80
2024/04/19 11:04:53;;;;;;;3.90;2.90;;;;;;;8.07;68.34;98041.78;226460;1260;22565;-77
2024/04/19 11:09:56;;;;;;;3.70;2.90;;;;;;;8.49;68.93;98048.77;226486;1267;22543;-78
2024/04/19 11:15:01;;;;;;;2.90;2.70;;;;;;;8.57;68.82;98068.87;226519;1256;25288;-79
2024/04/19 11:20:03;;;;;;;3.50;3.20;;;;;;;8.23;69.06;98045.17;226566;1264;22537;-79
2024/04/19 11:25:05;;;;;;;3.90;3.60;;;;;;;7.93;69.69;98021.38;226736;1256;22549;-78
2024/04/19 11:30:07;;;;;;;4.00;3.70;;;;;;;7.93;70.52;98013.22;226839;1263;22547;-78
2024/04/19 11:35:10;;;;;;;4.60;4.10;;;;;;;8.27;70.91;97996.33;226637;1263;22538;-78
2024/04/19 11:40:20;;;;;;;5.50;4.90;;;;;;;8.90;72.21;97988.94;226936;1263;22645;-78
2024/04/19 11:45:22;;;;;;;5.20;4.70;;;;;;;9.47;72.41;97974.15;226662;1253;22525;-78
2024/04/19 11:50:28;;;;;;;4.80;3.90;;;;;;;9.82;71.77;97969.84;226671;1262;23061;-77
2024/04/19 11:55:30;;;;;;;4.60;4.20;;;;;;;9.99;70.93;97962.56;226959;1260;22539;-76
2024/04/19 12:00:31;;;;;;;5.20;4.00;;;;;;;10.20;71.18;97956.17;226675;1260;22587;-77
2024/04/19 12:05:34;;;;;;;3.90;3.50;;;;;;;10.45;69.91;97945.70;226723;1260;22568;-80
2024/04/19 12:10:36;;;;;;;4.10;3.40;;;;;;;10.66;68.77;97936.41;226687;1253;22534;-78
2024/04/19 12:15:37;;;;;;;3.10;2.80;;;;;;;10.93;67.52;97936.02;226902;1264;22531;-78
2024/04/19 12:21:01;;;;;;;2.80;2.40;;;;;;;11.24;65.01;97925.23;226743;1263;22658;-78
2024/04/19 12:26:03;;;;;;;2.90;2.00;;;;;;;11.61;64.15;97912.83;226715;1271;22542;-77
2024/04/19 12:31:06;;;;;;;2.90;1.60;;;;;;;12.03;62.41;97906.42;226660;1263;22542;-77
2024/04/19 12:36:08;;;;;;;2.50;1.90;;;;;;;12.35;57.89;97900.10;226776;1263;22564;-82
2024/04/19 12:41:10;;;;;;;3.30;1.90;;;;;;;12.38;56.56;97888.86;226796;1263;24251;-79
2024/04/19 12:46:12;;;;;;;2.10;1.90;;;;;;;12.40;56.52;97871.94;226901;1263;22559;-76
2024/04/19 12:51:14;;;;;;;2.60;2.30;;;;;;;12.46;56.71;97870.02;226867;1264;25116;-77
2024/04/19 12:56:16;;;;;;;3.20;2.90;;;;;;;12.47;55.66;97861.73;226870;1263;22583;-78
2024/04/19 13:01:19;;;;;;;3.90;3.30;;;;;;;12.27;56.09;97855.90;226735;1258;22561;-78
2024/04/19 13:06:21;;;;;;;3.50;2.80;;;;;;;12.07;56.53;97847.89;226726;1273;22561;-77
2024/04/19 13:11:23;;;;;;;4.30;3.30;;;;;;;12.12;56.55;97850.05;226663;1263;22488;-79
2024/04/19 13:16:26;;;;;;;3.40;3.00;;;;;;;12.11;54.99;97852.13;226290;1256;294179;-77
2024/04/19 13:21:28;;;;;;;3.20;2.80;;;;;;;11.98;55.08;97851.27;226807;1263;22563;-82
2024/04/19 13:26:30;;;;;;;2.50;2.30;;;;;;;11.88;56.33;97846.58;226660;1260;22888;-77
2024/04/19 13:31:32;;;;;;;3.10;2.00;;;;;;;11.80;56.17;97845.80;226546;1264;22591;-78
2024/04/19 13:36:34;;;;;;;2.30;1.70;;;;;;;11.75;56.34;97837.40;226592;1269;22551;-78
2024/04/19 13:41:37;;;;;;;2.00;1.80;;;;;;;11.85;56.20;97832.00;226811;1272;24248;-78
2024/04/19 13:46:39;;;;;;;2.80;1.80;;;;;;;11.80;55.26;97826.35;226756;1264;22786;-78
2024/04/19 13:51:41;;;;;;;3.20;2.00;;;;;;;11.68;54.65;97818.00;226646;1262;22523;-77
2024/04/19 13:56:43;;;;;;;2.40;1.80;;;;;;;11.64;55.30;97812.75;226508;1253;22544;-76
2024/04/19 14:01:45;;;;;;;4.20;2.60;;;;;;;11.78;56.32;97811.38;226196;1272;22586;-77
2024/04/19 14:06:47;;;;;;;3.00;2.70;;;;;;;11.81;54.93;97803.83;226281;1271;25247;-76
2024/04/19 14:11:49;;;;;;;3.10;2.50;;;;;;;11.72;54.94;97799.52;226257;1275;22541;-78
2024/04/19 14:16:51;;;;;;;4.90;2.90;;;;;;;11.76;56.01;97790.26;226482;1272;22576;-78
2024/04/19 14:21:53;;;;;;;4.70;2.60;;;;;;;12.05;56.67;97780.38;226326;1275;22546;-76
2024/04/19 14:26:55;;;;;;;5.80;3.40;;;;;;;12.26;55.91;97772.70;226766;1272;22575;-78
2024/04/19 14:31:56;;;;;;;4.90;3.40;;;;;;;12.22;55.39;97760.83;226587;1275;22538;-78
2024/04/19 14:36:58;;;;;;;7.40;3.20;;;;;;;11.95;55.43;97743.03;226909;1272;24249;-77
2024/04/19 14:42:00;;;;;;;3.80;3.00;;;;;;;11.64;56.28;97739.66;226853;1275;22667;-77
2024/04/19 14:47:04;;;;;;;3.90;2.70;;;;;;;11.30;56.97;97738.33;226861;1272;22647;-77
2024/04/19 14:52:06;;;;;;;3.10;2.40;;;;;;;10.95;56.86;97731.97;226830;1273;22551;-77
2024/04/19 14:57:14;;;;;;;4.00;3.10;;;;;;;10.63;57.14;97755.91;226849;1271;22542;-78
2024/04/19 15:02:15;;;;;;;4.10;3.10;;;;;;;10.13;59.11;97778.31;226884;1272;23179;-78
2024/04/19 15:07:17;;;;;;;4.10;3.70;;;;;;;9.36;62.14;97759.30;226864;1272;23515;-77
2024/04/19 15:12:19;;;;;;;3.90;3.50;;;;;;;8.67;63.62;97770.62;226670;1274;22537;-78
2024/04/19 15:17:23;;;;;;;4.30;3.20;;;;;;;8.09;65.96;97805.77;226874;1259;22545;-79
2024/04/19 15:22:25;;;;;;;5.60;4.80;;;;;;;7.61;68.93;97811.71;226908;1272;22599;-77
2024/04/19 15:27:27;;;;;;;5.00;4.50;;;;;;;7.30;70.15;97823.15;226690;1275;23009;-79
2024/04/19 15:32:29;;;;;;;4.50;4.00;;;;;;;7.11;71.60;97805.13;226811;1272;22767;-77
2024/04/19 15:37:31;;;;;;;6.10;4.60;;;;;;;7.04;71.95;97790.82;226849;1272;22539;-78
2024/04/19 15:42:33;;;;;;;3.10;2.40;;;;;;;7.08;72.17;97762.16;226680;1275;22557;-77
2024/04/19 15:47:35;;;;;;;2.90;2.70;;;;;;;7.11;72.09;97742.79;226724;1275;25936;-78
2024/04/19 15:52:37;;;;;;;2.50;2.30;;;;;;;7.30;72.37;97733.01;226855;1272;22544;-78
2024/04/19 15:57:41;;;;;;;3.30;2.30;;;;;;;7.65;71.70;97725.35;226711;1272;22618;-80
2024/04/19 16:02:43;;;;;;;2.90;2.20;;;;;;;7.96;71.67;97713.66;226852;1275;22546;-78
2024/04/19 16:07:47;;;;;;;2.50;2.20;;;;;;;8.14;71.11;97709.35;226794;1275;22542;-78
2024/04/19 16:12:49;;;;;;;3.70;2.40;;;;;;;8.24;71.04;97703.41;226683;1275;22648;-77
2024/04/19 16:17:50;;;;;;;4.70;3.70;;;;;;;8.28;71.24;97703.35;226866;1273;22551;-77
2024/04/19 16:22:52;;;;;;;3.70;2.70;;;;;;;8.37;71.21;97691.73;226880;1272;22572;-77
2024/04/19 16:27:54;;;;;;;5.30;3.90;;;;;;;8.40;70.96;97686.52;226807;1275;22549;-77
2024/04/19 16:32:57;;;;;;;6.50;4.90;;;;;;;8.39;71.38;97672.98;226859;1275;22568;-78
2024/04/19 16:38:00;;;;;;;7.20;5.30;;;;;;;8.29;71.77;97672.23;226747;1275;22528;-77
2024/04/19 16:43:02;;;;;;;6.70;5.60;;;;;;;8.19;72.04;97669.12;226676;1275;22565;-77
2024/04/19 16:48:05;;;;;;;8.80;5.90;;;;;;;8.13;72.31;97675.84;226697;1275;22553;-77
2024/04/19 16:53:07;;;;;;;5.80;4.60;;;;;;;8.08;72.52;97671.86;226630;1275;23086;-77
2024/04/19 16:58:09;;;;;;;7.00;4.30;;;;;;;8.05;72.27;97663.34;226679;1275;22600;-80
2024/04/19 17:03:10;;;;;;;4.80;4.30;;;;;;;8.01;71.71;97658.23;226745;1275;22546;-79
2024/04/19 17:08:14;;;;;;;5.50;3.80;;;;;;;7.95;71.19;97651.40;226855;1275;22559;-77
2024/04/19 17:13:16;;;;;;;4.60;3.20;;;;;;;7.86;71.36;97641.05;226664;1275;22542;-77
2024/04/19 17:18:18;;;;;;;6.50;4.70;;;;;;;7.75;71.41;97633.14;226885;1273;22559;-77
2024/04/19 17:23:20;;;;;;;7.30;4.70;;;;;;;7.67;71.67;97632.11;226600;1275;22550;-77
2024/04/19 17:28:22;;;;;;;7.10;4.50;;;;;;;7.59;71.74;97627.47;226739;1259;22541;-76
2024/04/19 17:33:24;;;;;;;6.60;4.60;;;;;;;7.51;72.04;97625.26;226882;1272;23277;-76
2024/04/19 17:38:26;;;;;;;6.10;4.80;;;;;;;7.44;71.97;97624.02;226734;1275;22541;-77
2024/04/19 17:43:28;;;;;;;9.50;6.70;;;;;;;7.38;72.32;97622.95;226896;1272;22570;-78
2024/04/19 17:48:30;;;;;;;10.00;6.90;;;;;;;7.36;72.36;97619.59;226924;1272;22568;-78
2024/04/19 17:53:31;;;;;;;9.60;6.40;;;;;;;7.34;72.33;97619.77;226723;1275;22550;-76
2024/04/19 17:58:33;;;;;;;7.70;5.50;;;;;;;7.32;72.60;97615.88;226741;1275;22545;-77
2024/04/19 18:03:35;;;;;;;6.10;4.80;;;;;;;7.31;71.96;97611.98;226928;1272;22582;-78
2024/04/19 18:08:39;;;;;;;8.60;4.70;;;;;;;7.35;71.91;97615.58;226728;1275;22710;-77
2024/04/19 18:13:40;;;;;;;9.00;4.70;;;;;;;7.40;71.86;97616.20;226738;1275;24373;-78
2024/04/19 18:18:42;;;;;;;7.80;4.20;;;;;;;7.46;71.32;97626.16;226919;1275;22550;-76
2024/04/19 18:23:44;;;;;;;5.40;3.90;;;;;;;7.48;71.09;97627.31;226849;1275;22585;-77
2024/04/19 18:28:47;;;;;;;4.60;3.50;;;;;;;7.47;70.98;97627.70;226905;1275;22535;-77
2024/04/19 18:33:59;;;;;;;4.20;3.60;;;;;;;7.46;71.26;97626.73;226926;1275;22554;-78
2024/04/19 18:39:01;;;;;;;8.40;4.00;;;;;;;7.43;70.96;97628.41;226880;1275;22577;-76
2024/04/19 18:44:03;;;;;;;4.00;3.40;;;;;;;7.44;71.06;97630.60;226920;1272;25242;-77
2024/04/19 18:49:09;;;;;;;6.00;3.60;;;;;;;7.47;71.06;97636.27;226983;1257;22615;-77
2024/04/19 18:54:11;;;;;;;4.30;3.40;;;;;;;7.48;70.75;97635.46;226723;1275;22568;-78
2024/04/19 18:59:13;;;;;;;4.60;3.50;;;;;;;7.45;70.85;97630.91;226863;1273;22570;-78
2024/04/19 19:04:15;;;;;;;4.10;3.30;;;;;;;7.41;70.89;97633.67;226981;1274;22550;-77
2024/04/19 19:09:17;;;;;;;4.20;3.30;;;;;;;7.38;70.88;97632.81;226963;1273;22659;-77
2024/04/19 19:14:18;;;;;;;4.40;3.50;;;;;;;7.33;71.56;97627.81;226989;1275;25272;-76
2024/04/19 19:19:23;;;;;;;4.70;3.80;;;;;;;7.26;71.99;97631.94;226960;1275;22552;-78
2024/04/19 19:24:30;;;;;;;6.30;4.30;;;;;;;7.17;72.38;97624.38;227038;1275;22541;-78
2024/04/19 19:29:32;;;;;;;5.80;4.30;;;;;;;7.07;72.82;97614.71;226975;1269;22545;-78
2024/04/19 19:34:34;;;;;;;5.70;4.50;;;;;;;6.96;73.27;97605.45;227000;1275;22650;-78
2024/04/19 19:39:37;;;;;;;5.50;4.10;;;;;;;6.87;74.00;97606.08;226763;1275;22613;-77
2024/04/19 19:44:39;;;;;;;7.80;4.80;;;;;;;6.77;73.88;97605.75;227075;1275;22871;-78
2024/04/19 19:49:40;;;;;;;6.60;4.70;;;;;;;6.69;74.54;97597.81;226817;1274;22549;-77
2024/04/19 19:54:42;;;;;;;7.20;5.10;;;;;;;6.64;75.02;97601.44;226779;1275;22541;-78
2024/04/19 20:10:25;;;;;;;6.60;4.30;;;;;;;6.59;75.06;97606.80;226999;1272;22553;-77
2024/04/19 20:15:27;;;;;;;6.50;4.10;;;;;;;6.59;75.53;97601.59;226994;1272;22642;-77
2024/04/19 20:20:30;;;;;;;6.20;4.30;;;;;;;6.62;75.39;97605.94;226981;1275;22577;-77
2024/04/19 20:25:33;;;;;;;4.90;3.60;;;;;;;6.65;76.48;97605.55;226788;1275;22541;-77
2024/04/19 20:30:35;;;;;;;5.80;3.60;;;;;;;6.70;76.54;97604.76;226776;1275;22546;-78
2024/04/19 20:35:37;;;;;;;3.90;3.00;;;;;;;6.70;76.31;97601.61;227055;1275;22564;-78
2024/04/19 20:40:39;;;;;;;3.60;3.20;;;;;;;6.67;76.94;97602.41;226940;1275;22537;-77
2024/04/19 20:45:40;;;;;;;4.90;3.60;;;;;;;6.63;77.20;97603.73;226724;1275;25282;-77
2024/04/19 20:50:46;;;;;;;3.80;3.40;;;;;;;6.57;77.55;97604.67;227008;1273;22553;-77
2024/04/19 20:55:47;;;;;;;4.90;3.80;;;;;;;6.51;77.66;97602.41;226910;1273;22554;-78
2024/04/19 21:00:49;;;;;;;4.20;3.80;;;;;;;6.47;78.16;97610.30;227008;1271;22564;-77
2024/04/19 21:05:51;;;;;;;5.20;4.40;;;;;;;6.42;78.21;97609.13;227019;1273;22546;-77
2024/04/19 21:10:54;;;;;;;5.30;3.70;;;;;;;6.39;78.87;97612.70;226958;1275;22544;-78
2024/04/19 21:16:04;;;;;;;5.40;4.30;;;;;;;6.33;79.15;97613.35;226992;1272;22529;-77
2024/04/19 21:21:17;;;;;;;4.60;3.80;;;;;;;6.28;79.26;97619.59;226684;1275;22582;-77
2024/04/19 21:26:19;;;;;;;6.80;4.50;;;;;;;6.23;79.93;97619.88;226715;1274;22550;-77
2024/04/19 21:31:21;;;;;;;6.60;4.90;;;;;;;6.18;80.61;97616.54;226921;1275;22552;-77
2024/04/19 21:36:22;;;;;;;6.80;4.50;;;;;;;6.09;81.70;97622.70;226972;1269;22559;-78
2024/04/19 21:41:24;;;;;;;6.00;4.70;;;;;;;6.00;82.03;97616.77;226844;1271;22554;-78
2024/04/19 21:46:28;;;;;;;5.50;3.90;;;;;;;5.92;82.08;97612.15;226875;1270;25352;-76
2024/04/19 21:51:30;;;;;;;4.00;3.10;;;;;;;5.86;82.59;97613.55;226977;1274;22553;-77
2024/04/19 21:56:32;;;;;;;4.10;3.70;;;;;;;5.80;82.69;97615.66;227026;1273;22545;-77
2024/04/19 22:01:34;;;;;;;4.50;4.10;;;;;;;5.77;82.88;97615.23;226974;1273;22546;-78
2024/04/19 22:06:36;;;;;;;5.00;3.90;;;;;;;5.75;83.11;97617.06;226745;1273;22574;-78
2024/04/19 22:11:38;;;;;;;5.70;4.40;;;;;;;5.74;83.33;97621.40;226751;1275;22545;-77
2024/04/19 22:16:40;;;;;;;6.10;4.80;;;;;;;5.72;83.32;97624.73;227036;1275;22547;-77
2024/04/19 22:21:42;;;;;;;6.80;4.90;;;;;;;5.71;83.84;97622.13;227001;1272;22548;-75
2024/04/19 22:26:44;;;;;;;5.30;4.30;;;;;;;5.68;83.88;97622.55;226740;1274;22548;-77
2024/04/19 22:31:50;;;;;;;3.90;3.20;;;;;;;5.65;84.20;97621.66;226626;1275;23048;-76
2024/04/19 22:36:55;;;;;;;3.70;3.00;;;;;;;5.62;84.26;97626.09;226929;1271;22600;-76
2024/04/19 22:41:57;;;;;;;2.80;2.50;;;;;;;5.58;84.30;97630.23;226758;1271;22617;-77
2024/04/19 22:46:59;;;;;;;3.70;2.60;;;;;;;5.55;83.94;97629.77;226767;1275;22645;-77
2024/04/19 22:52:01;;;;;;;3.10;2.60;;;;;;;5.52;83.87;97632.20;226974;1273;22559;-77
2024/04/19 22:57:03;;;;;;;2.80;2.60;;;;;;;5.52;84.29;97631.05;227015;1273;22551;-78
2024/04/19 23:02:04;;;;;;;3.50;3.10;;;;;;;5.49;84.02;97624.70;226679;1275;22664;-79
2024/04/19 23:07:09;;;;;;;4.40;3.40;;;;;;;5.50;84.04;97623.95;226938;1275;22580;-78
2024/04/19 23:12:11;;;;;;;3.30;2.90;;;;;;;5.49;84.20;97623.04;226987;1275;22542;-78
2024/04/19 23:17:13;;;;;;;3.80;3.00;;;;;;;5.47;84.28;97618.38;226911;1275;22538;-78
2024/04/19 23:22:15;;;;;;;3.30;2.80;;;;;;;5.44;84.38;97613.30;226892;1271;22680;-78
2024/04/19 23:27:17;;;;;;;2.90;2.60;;;;;;;5.44;84.38;97607.90;226912;1273;22566;-77
2024/04/19 23:32:19;;;;;;;3.00;2.70;;;;;;;5.43;84.57;97604.66;226839;1273;23642;-78
2024/04/19 23:37:20;;;;;;;3.00;2.60;;;;;;;5.43;84.35;97607.80;226720;1273;24185;-78
2024/04/19 23:42:22;;;;;;;3.90;3.20;;;;;;;5.44;84.49;97604.46;226709;1275;22542;-77
2024/04/19 23:47:24;;;;;;;3.30;3.00;;;;;;;5.42;84.69;97600.94;226722;1273;22538;-77
2024/04/19 23:52:26;;;;;;;3.70;3.00;;;;;;;5.41;84.68;97598.70;226749;1273;22559;-75